Time;durP1;ratioP1;P1;durP2;ratioP2;P2;SDS_P1;SDS_P2;PMS_P1;PMS_P2;Temp;Humidity;BMP_temperature;BMP_pressure;BME280_temperature;BME280_humidity;BME280_pressure;Samples;Min_cycle;Max_cycle;Signal;HPM_P1;HPM_P2
2021/04/04 00:01:34;;;;;;;7.10;5.27;;;5.10;92.30;;;;;;5095236;28;20209;-89
2021/04/04 00:04:01;;;;;;;6.53;4.83;;;5.00;92.50;;;;;;5095275;28;20211;-88
2021/04/04 00:06:27;;;;;;;5.20;4.43;;;5.00;92.60;;;;;;5095032;28;20202;-88
2021/04/04 00:08:53;;;;;;;4.77;4.33;;;5.00;93.00;;;;;;5095038;28;20214;-88
2021/04/04 00:11:19;;;;;;;5.77;4.37;;;5.00;93.00;;;;;;5094837;28;20688;-88
2021/04/04 00:13:45;;;;;;;6.53;4.57;;;4.90;93.00;;;;;;5094856;28;20264;-88
2021/04/04 00:16:11;;;;;;;5.27;4.70;;;4.90;93.00;;;;;;5094995;28;20199;-89
2021/04/04 00:18:41;;;;;;;7.07;5.13;;;4.80;93.00;;;;;;5094633;28;20203;-89
2021/04/04 00:21:07;;;;;;;5.47;4.83;;;4.80;93.20;;;;;;5094822;28;20217;-89
2021/04/04 00:23:34;;;;;;;7.03;4.70;;;4.80;93.10;;;;;;5095006;28;20206;-89
2021/04/04 00:26:00;;;;;;;7.30;4.33;;;4.80;93.10;;;;;;5094746;28;20213;-90
2021/04/04 00:28:26;;;;;;;4.30;3.30;;;4.80;92.90;;;;;;5094579;28;20673;-90
2021/04/04 00:30:52;;;;;;;3.80;3.50;;;4.90;92.60;;;;;;5094745;28;20244;-89
2021/04/04 00:33:18;;;;;;;7.03;3.70;;;4.80;92.40;;;;;;5094793;28;20283;-89
2021/04/04 00:35:45;;;;;;;3.93;3.50;;;4.80;92.60;;;;;;5094503;28;20250;-90
2021/04/04 00:38:13;;;;;;;4.37;3.70;;;4.70;92.70;;;;;;5095156;28;20210;-90
2021/04/04 00:40:39;;;;;;;4.00;3.37;;;4.60;93.00;;;;;;5094578;28;20291;-90
2021/04/04 00:43:06;;;;;;;3.73;3.43;;;4.50;93.00;;;;;;5094510;28;20207;-91
2021/04/04 00:45:34;;;;;;;3.93;3.37;;;4.50;93.10;;;;;;5094691;28;20211;-90
2021/04/04 00:48:01;;;;;;;3.57;2.90;;;4.40;93.20;;;;;;5094892;28;20214;-89
2021/04/04 00:50:30;;;;;;;3.67;3.30;;;4.40;93.40;;;;;;5094207;28;20211;-85
2021/04/04 00:52:58;;;;;;;4.33;2.87;;;4.40;93.90;;;;;;5093866;28;20268;-86
2021/04/04 00:55:24;;;;;;;3.50;3.20;;;4.50;94.50;;;;;;5092852;28;20296;-86
2021/04/04 00:57:51;;;;;;;3.53;2.50;;;4.50;94.90;;;;;;5094007;28;20203;-89
2021/04/04 01:00:20;;;;;;;3.43;2.40;;;4.50;96.60;;;;;;5094073;28;20230;-90
2021/04/04 01:02:46;;;;;;;2.90;2.60;;;4.40;97.30;;;;;;5094022;28;20271;-84
2021/04/04 01:05:15;;;;;;;3.03;2.50;;;4.40;97.30;;;;;;5093561;28;20203;-85
2021/04/04 01:07:44;;;;;;;3.60;2.70;;;4.50;97.50;;;;;;5093794;28;20298;-85
2021/04/04 01:10:12;;;;;;;2.57;2.37;;;4.50;97.80;;;;;;5093423;28;20214;-85
2021/04/04 01:12:48;;;;;;;2.50;2.30;;;4.50;98.50;;;;;;5090329;28;20207;-84
2021/04/04 01:15:16;;;;;;;2.50;2.30;;;4.50;99.20;;;;;;5070283;28;20241;-84
2021/04/04 01:17:45;;;;;;;2.63;2.43;;;4.40;99.40;;;;;;5072940;28;20257;-84
2021/04/04 01:20:18;;;;;;;2.50;2.30;;;4.50;99.90;;;;;;5072760;28;20640;-85
2021/04/04 01:23:13;;;;;;;2.37;2.17;;;4.50;99.90;;;;;;5072690;28;20573;-84
2021/04/04 01:25:51;;;;;;;2.53;2.20;;;4.50;99.90;;;;;;5073138;28;20570;-84
2021/04/04 01:28:21;;;;;;;2.40;2.20;;;4.40;99.90;;;;;;5073177;28;20199;-85
2021/04/04 01:30:49;;;;;;;5.00;2.77;;;4.40;99.90;;;;;;5072933;28;20265;-85
2021/04/04 01:33:18;;;;;;;2.40;2.20;;;4.50;99.90;;;;;;5072743;28;20211;-85
2021/04/04 01:35:46;;;;;;;3.53;2.53;;;4.50;99.90;;;;;;5072671;28;20232;-85
2021/04/04 01:38:14;;;;;;;2.53;2.43;;;4.40;99.90;;;;;;5072978;28;20246;-86
2021/04/04 01:40:43;;;;;;;3.03;2.70;;;4.50;99.90;;;;;;5072917;28;20739;-85
2021/04/04 01:43:10;;;;;;;2.83;2.43;;;4.40;99.90;;;;;;5072399;28;20234;-85
2021/04/04 01:45:40;;;;;;;3.10;2.40;;;4.30;99.90;;;;;;5072658;28;20214;-85
2021/04/04 01:48:08;;;;;;;2.70;2.50;;;4.40;99.90;;;;;;5071971;28;20273;-85
2021/04/04 01:50:35;;;;;;;2.40;2.20;;;4.30;99.90;;;;;;5071326;28;20230;-85
2021/04/04 01:53:02;;;;;;;3.67;2.80;;;4.30;99.90;;;;;;5071057;28;20207;-85
2021/04/04 01:55:29;;;;;;;3.53;3.00;;;4.30;99.90;;;;;;5071447;28;20250;-86
2021/04/04 01:57:55;;;;;;;2.80;2.60;;;4.20;99.90;;;;;;5071225;28;20207;-85
2021/04/04 02:00:25;;;;;;;2.97;2.60;;;4.10;99.90;;;;;;5072151;28;20231;-85
2021/04/04 02:02:54;;;;;;;2.70;2.50;;;4.20;99.90;;;;;;5072358;28;20273;-85
2021/04/04 02:05:20;;;;;;;3.43;3.20;;;4.20;99.90;;;;;;5072093;28;20192;-83
2021/04/04 02:07:49;;;;;;;3.93;3.63;;;4.10;99.90;;;;;;5072166;28;20207;-84
2021/04/04 02:10:18;;;;;;;3.47;3.00;;;4.10;99.90;;;;;;5072088;28;20696;-83
2021/04/04 02:12:45;;;;;;;3.73;3.43;;;4.10;99.80;;;;;;5071997;28;20229;-83
2021/04/04 02:15:14;;;;;;;4.03;3.40;;;4.10;99.70;;;;;;5071546;28;20271;-85
2021/04/04 02:17:42;;;;;;;3.80;3.50;;;4.00;99.80;;;;;;5072136;28;20207;-85
2021/04/04 02:20:12;;;;;;;4.40;4.00;;;4.00;99.90;;;;;;5071987;28;20227;-85
2021/04/04 02:22:40;;;;;;;4.03;3.77;;;4.00;99.90;;;;;;5072033;28;20248;-90
2021/04/04 02:25:08;;;;;;;4.23;3.87;;;3.80;99.90;;;;;;5072297;28;20264;-89
2021/04/04 02:27:34;;;;;;;4.90;4.50;;;3.80;99.90;;;;;;5072260;28;20252;-89
2021/04/04 02:30:03;;;;;;;4.20;3.83;;;3.80;99.90;;;;;;5072102;28;20238;-90
2021/04/04 02:32:30;;;;;;;5.20;4.27;;;3.70;99.90;;;;;;5071937;28;20215;-88
2021/04/04 02:35:00;;;;;;;4.63;4.23;;;3.80;99.90;;;;;;5071590;28;20251;-87
2021/04/04 02:37:27;;;;;;;4.67;3.80;;;3.80;99.90;;;;;;5071915;28;20214;-88
2021/04/04 02:39:59;;;;;;;5.00;4.07;;;3.80;99.90;;;;;;5071772;28;20284;-88
2021/04/04 02:42:27;;;;;;;6.77;3.70;;;3.70;99.90;;;;;;5071480;28;20203;-85
2021/04/04 02:44:56;;;;;;;4.70;4.30;;;3.80;99.90;;;;;;5071324;28;20204;-84
2021/04/04 02:47:26;;;;;;;4.57;4.17;;;3.80;99.90;;;;;;5071683;28;20203;-85
2021/04/04 02:49:53;;;;;;;4.20;3.90;;;3.80;99.90;;;;;;5071680;28;20203;-85
2021/04/04 02:52:21;;;;;;;4.87;4.13;;;3.90;99.90;;;;;;5071545;28;20242;-86
2021/04/04 02:54:53;;;;;;;4.73;4.30;;;3.90;99.90;;;;;;5071443;28;20203;-86
2021/04/04 02:57:21;;;;;;;5.63;4.47;;;3.90;99.90;;;;;;5071077;28;20669;-85
2021/04/04 02:59:50;;;;;;;4.67;4.27;;;3.90;99.90;;;;;;5071122;28;20300;-85
2021/04/04 03:02:19;;;;;;;4.10;3.80;;;3.90;99.90;;;;;;5071266;28;20207;-84
2021/04/04 03:04:48;;;;;;;5.93;3.77;;;3.90;99.90;;;;;;5071424;28;20217;-84
2021/04/04 03:07:18;;;;;;;5.13;4.23;;;3.90;99.90;;;;;;5071290;28;20215;-85
2021/04/04 03:09:46;;;;;;;5.77;3.97;;;3.80;99.90;;;;;;5071522;28;20207;-85
2021/04/04 03:12:14;;;;;;;4.80;4.30;;;3.80;99.90;;;;;;5071628;28;20262;-90
2021/04/04 03:14:41;;;;;;;4.67;4.27;;;3.80;99.90;;;;;;5071383;28;20740;-89
2021/04/04 03:17:09;;;;;;;4.30;4.00;;;3.80;99.90;;;;;;5071514;28;20204;-89
2021/04/04 03:19:38;;;;;;;4.43;3.77;;;3.70;99.90;;;;;;5070792;28;20263;-88
2021/04/04 03:22:05;;;;;;;4.37;4.07;;;3.70;99.90;;;;;;5071177;28;20215;-88
2021/04/04 03:24:32;;;;;;;5.17;4.43;;;3.60;99.90;;;;;;5071333;28;20214;-87
2021/04/04 03:27:01;;;;;;;4.43;4.03;;;3.50;99.90;;;;;;5070719;28;20850;-90
2021/04/04 03:29:28;;;;;;;4.40;4.00;;;3.50;99.90;;;;;;5071386;28;20215;-91
2021/04/04 03:31:56;;;;;;;4.40;4.00;;;3.50;99.90;;;;;;5070908;28;20203;-86
2021/04/04 03:34:22;;;;;;;4.40;4.00;;;3.50;99.90;;;;;;5071157;28;20253;-88
2021/04/04 03:36:50;;;;;;;5.30;4.17;;;3.50;99.90;;;;;;5071042;28;20218;-87
2021/04/04 03:39:16;;;;;;;4.40;4.00;;;3.50;99.90;;;;;;5070975;28;20245;-89
2021/04/04 03:41:43;;;;;;;4.37;3.97;;;3.50;99.90;;;;;;5071206;28;20203;-89
2021/04/04 03:44:11;;;;;;;5.43;4.07;;;3.50;99.90;;;;;;5071248;28;20208;-88
2021/04/04 03:46:40;;;;;;;4.53;4.13;;;3.40;99.90;;;;;;5071310;28;20211;-89
2021/04/04 03:49:07;;;;;;;4.23;3.90;;;3.50;99.90;;;;;;5071145;28;20212;-89
2021/04/04 03:51:34;;;;;;;4.93;3.97;;;3.50;99.90;;;;;;5071072;28;20222;-87
2021/04/04 03:54:02;;;;;;;3.70;3.40;;;3.50;99.90;;;;;;5070887;28;20200;-88
2021/04/04 03:56:33;;;;;;;3.93;3.63;;;3.50;99.90;;;;;;5071046;28;20519;-89
2021/04/04 03:59:04;;;;;;;4.43;3.40;;;3.50;99.90;;;;;;5069738;28;20566;-82
2021/04/04 04:01:32;;;;;;;4.27;3.50;;;3.40;99.90;;;;;;5069870;28;20559;-83
2021/04/04 04:04:00;;;;;;;4.23;3.90;;;3.40;99.90;;;;;;5069780;28;20361;-83
2021/04/04 04:06:27;;;;;;;4.00;3.60;;;3.40;99.90;;;;;;5070721;28;20250;-89
2021/04/04 04:08:53;;;;;;;3.67;3.37;;;3.50;99.90;;;;;;5070977;28;20645;-91
2021/04/04 04:11:20;;;;;;;4.17;3.77;;;3.50;99.90;;;;;;5070799;28;20204;-88
2021/04/04 04:13:47;;;;;;;3.77;3.47;;;3.50;99.90;;;;;;5070511;28;20733;-87
2021/04/04 04:16:15;;;;;;;3.47;3.17;;;3.50;99.90;;;;;;5070564;28;20196;-86
2021/04/04 04:18:43;;;;;;;3.73;3.43;;;3.50;99.90;;;;;;5070705;28;20658;-86
2021/04/04 04:21:11;;;;;;;3.90;3.20;;;3.40;99.90;;;;;;5070276;28;20626;-85
2021/04/04 04:23:38;;;;;;;3.90;3.60;;;3.50;99.90;;;;;;5070382;28;20587;-86
2021/04/04 04:26:05;;;;;;;3.50;3.20;;;3.50;99.90;;;;;;5070501;28;20208;-86
2021/04/04 04:28:34;;;;;;;3.80;3.43;;;3.50;99.90;;;;;;5070669;28;20199;-88
2021/04/04 04:31:01;;;;;;;4.97;3.97;;;3.50;99.90;;;;;;5073592;28;20211;-87
2021/04/04 04:33:27;;;;;;;3.60;3.40;;;3.50;99.90;;;;;;5074444;28;20247;-88
2021/04/04 04:35:53;;;;;;;3.63;3.33;;;3.50;99.90;;;;;;5074550;28;20716;-86
2021/04/04 04:38:21;;;;;;;3.83;3.20;;;3.50;99.90;;;;;;5074321;28;20610;-86
2021/04/04 04:40:47;;;;;;;3.60;3.33;;;3.40;99.90;;;;;;5073909;28;20251;-84
2021/04/04 04:43:17;;;;;;;5.37;3.43;;;3.40;99.90;;;;;;5073261;28;20590;-83
2021/04/04 04:45:45;;;;;;;3.80;3.20;;;3.40;99.90;;;;;;5073571;28;20207;-82
2021/04/04 04:48:12;;;;;;;9.33;3.70;;;3.30;99.90;;;;;;5073916;28;20214;-87
2021/04/04 04:50:41;;;;;;;4.00;3.30;;;3.20;99.90;;;;;;5073885;28;20215;-87
2021/04/04 04:53:08;;;;;;;4.83;3.53;;;3.20;99.90;;;;;;5073944;28;20252;-87
2021/04/04 04:55:36;;;;;;;3.83;3.37;;;3.20;99.90;;;;;;5073951;28;20203;-90
2021/04/04 04:58:05;;;;;;;4.87;3.10;;;3.20;99.90;;;;;;5074209;28;20203;-90
2021/04/04 05:00:32;;;;;;;3.80;3.50;;;3.20;99.90;;;;;;5074226;28;20238;-90
2021/04/04 05:02:58;;;;;;;3.23;3.00;;;3.20;99.90;;;;;;5074217;28;20261;-90
2021/04/04 05:05:24;;;;;;;4.07;3.77;;;3.20;99.90;;;;;;5074110;28;20300;-83
2021/04/04 05:07:53;;;;;;;3.23;3.03;;;3.10;99.90;;;;;;5073249;28;20210;-84
2021/04/04 05:10:21;;;;;;;4.57;3.40;;;3.10;99.90;;;;;;5072967;28;20199;-84
2021/04/04 05:12:52;;;;;;;3.07;2.87;;;3.20;99.90;;;;;;5073363;28;20637;-84
2021/04/04 05:15:19;;;;;;;5.07;3.03;;;3.20;99.90;;;;;;5072572;28;20725;-84
2021/04/04 05:17:45;;;;;;;3.30;3.00;;;3.30;99.90;;;;;;5073035;28;20242;-84
2021/04/04 05:20:12;;;;;;;3.70;3.40;;;3.40;99.90;;;;;;5073184;28;20223;-84
2021/04/04 05:22:39;;;;;;;5.07;4.60;;;3.30;99.90;;;;;;5072895;28;20218;-84
2021/04/04 05:25:07;;;;;;;5.00;4.30;;;3.40;99.90;;;;;;5072813;28;20228;-84
2021/04/04 05:27:33;;;;;;;5.80;4.90;;;3.30;99.90;;;;;;5072465;28;20241;-83
2021/04/04 05:30:01;;;;;;;3.50;3.20;;;3.20;99.90;;;;;;5072215;28;20662;-84
2021/04/04 05:32:28;;;;;;;4.13;3.73;;;3.20;99.90;;;;;;5072629;28;20253;-84
2021/04/04 05:34:54;;;;;;;4.07;3.67;;;3.20;99.90;;;;;;5073176;28;20266;-87
2021/04/04 05:37:20;;;;;;;5.07;3.20;;;3.30;99.90;;;;;;5073383;28;20747;-87
2021/04/04 05:39:47;;;;;;;3.07;2.77;;;3.20;99.90;;;;;;5073500;28;20277;-88
2021/04/04 05:42:14;;;;;;;3.60;2.97;;;3.20;99.90;;;;;;5072722;28;20199;-88
2021/04/04 05:44:44;;;;;;;2.93;2.73;;;3.10;99.90;;;;;;5073398;28;20230;-89
2021/04/04 05:47:16;;;;;;;3.10;2.80;;;3.10;99.90;;;;;;5073900;28;20249;-90
2021/04/04 05:49:54;;;;;;;3.67;3.30;;;3.10;99.90;;;;;;5076565;28;20202;-87
2021/04/04 05:52:29;;;;;;;4.00;3.47;;;3.10;99.90;;;;;;5091447;28;20243;-81
2021/04/04 05:55:06;;;;;;;3.77;3.07;;;3.00;99.90;;;;;;5091958;28;20195;-86
2021/04/04 05:57:35;;;;;;;2.87;2.67;;;3.00;99.90;;;;;;5091168;28;20225;-82
2021/04/04 06:00:04;;;;;;;2.90;2.70;;;3.10;99.90;;;;;;5074348;28;20227;-89
2021/04/04 06:03:25;;;;;;;3.13;2.83;;;3.00;99.90;;;;;;5072479;28;20257;-89
2021/04/04 06:06:16;;;;;;;2.60;2.40;;;3.10;99.90;;;;;;5047789;28;20729;-88
2021/04/04 06:08:56;;;;;;;4.63;2.60;;;3.00;99.90;;;;;;5084974;28;20239;-82
2021/04/04 06:11:29;;;;;;;3.30;2.70;;;3.10;99.90;;;;;;5073232;28;20194;-83
2021/04/04 06:14:00;;;;;;;2.67;2.47;;;3.10;99.90;;;;;;5089163;28;20763;-86
2021/04/04 06:16:40;;;;;;;3.10;2.80;;;3.10;99.90;;;;;;5092241;28;20204;-86
2021/04/04 06:19:16;;;;;;;3.63;2.87;;;3.10;99.90;;;;;;5090616;28;20561;-85
2021/04/04 06:21:51;;;;;;;4.67;3.93;;;3.10;99.90;;;;;;5080383;28;20203;-85
2021/04/04 06:24:29;;;;;;;3.60;3.30;;;3.10;99.90;;;;;;5072040;28;20207;-85
2021/04/04 06:27:03;;;;;;;3.97;2.80;;;3.10;99.90;;;;;;5071684;28;20231;-85
2021/04/04 06:29:38;;;;;;;2.80;2.60;;;3.20;99.90;;;;;;5072016;28;20204;-85
2021/04/04 06:32:08;;;;;;;3.93;2.87;;;3.30;99.90;;;;;;5080755;28;20222;-86
2021/04/04 06:34:40;;;;;;;3.00;2.70;;;3.50;99.90;;;;;;5091516;28;20268;-85
2021/04/04 06:37:32;;;;;;;3.20;2.73;;;3.70;99.90;;;;;;5097021;28;20651;-86
2021/04/04 06:40:03;;;;;;;3.57;3.00;;;3.80;99.90;;;;;;5098166;28;20219;-85
2021/04/04 06:42:45;;;;;;;3.47;3.17;;;3.70;99.90;;;;;;5082541;28;20206;-75
2021/04/04 06:45:20;;;;;;;3.40;3.10;;;3.80;99.90;;;;;;5078248;28;20558;-76
2021/04/04 06:48:12;;;;;;;3.90;3.03;;;4.00;99.90;;;;;;5081444;28;20214;-82
2021/04/04 06:50:46;;;;;;;3.07;2.60;;;4.00;99.90;;;;;;5081681;28;20187;-84
2021/04/04 06:53:25;;;;;;;3.50;2.63;;;4.00;99.90;;;;;;5076159;28;20203;-83
2021/04/04 06:56:06;;;;;;;3.70;2.90;;;4.00;99.90;;;;;;5084253;28;20202;-84
2021/04/04 06:58:50;;;;;;;3.27;2.80;;;4.10;99.90;;;;;;5071119;28;20227;-84
2021/04/04 07:01:32;;;;;;;3.10;2.70;;;4.10;99.90;;;;;;5070521;28;20234;-85
2021/04/04 07:04:02;;;;;;;3.00;2.70;;;4.00;99.90;;;;;;5071488;28;20200;-84
2021/04/04 07:07:02;;;;;;;5.87;2.73;;;4.10;99.90;;;;;;5070117;28;20235;-84
2021/04/04 07:09:49;;;;;;;2.53;2.33;;;4.00;99.90;;;;;;5059648;28;20765;-85
2021/04/04 07:12:26;;;;;;;2.93;2.57;;;4.10;99.90;;;;;;5070525;28;20230;-83
2021/04/04 07:15:08;;;;;;;3.30;3.00;;;4.10;99.90;;;;;;5070488;28;20266;-85
2021/04/04 07:18:02;;;;;;;3.07;2.80;;;4.10;99.90;;;;;;5070953;28;20683;-85
2021/04/04 07:20:55;;;;;;;3.50;2.50;;;4.10;99.90;;;;;;5070486;28;20301;-85
2021/04/04 07:23:37;;;;;;;3.00;2.47;;;4.20;99.90;;;;;;5070364;28;20203;-86
2021/04/04 07:26:18;;;;;;;2.90;2.60;;;4.40;99.90;;;;;;5071107;28;20203;-85
2021/04/04 07:28:57;;;;;;;2.63;2.43;;;4.50;99.90;;;;;;5070935;28;20202;-85
2021/04/04 07:31:27;;;;;;;2.60;2.40;;;4.60;99.90;;;;;;5070755;28;20526;-85
2021/04/04 07:34:03;;;;;;;3.40;2.43;;;4.80;99.90;;;;;;5070884;28;20191;-85
2021/04/04 07:36:35;;;;;;;2.73;2.53;;;4.80;99.90;;;;;;5071077;28;20195;-85
2021/04/04 07:39:08;;;;;;;3.00;2.67;;;4.90;99.90;;;;;;5070931;28;20191;-85
2021/04/04 07:41:42;;;;;;;2.80;2.03;;;5.00;99.90;;;;;;5070737;28;20222;-85
2021/04/04 07:44:23;;;;;;;3.40;3.07;;;5.00;99.90;;;;;;5070667;28;20200;-85
2021/04/04 07:46:57;;;;;;;2.67;2.43;;;5.20;99.90;;;;;;5070638;28;20714;-85
2021/04/04 07:49:42;;;;;;;4.60;3.17;;;5.40;99.90;;;;;;5070689;28;20192;-86
2021/04/04 07:52:18;;;;;;;3.70;3.00;;;5.60;99.90;;;;;;5070573;28;20199;-85
2021/04/04 07:55:04;;;;;;;4.70;3.30;;;5.70;99.90;;;;;;5070541;28;20645;-85
2021/04/04 07:57:46;;;;;;;9.73;3.93;;;5.70;99.90;;;;;;5070302;28;20206;-85
2021/04/04 08:00:14;;;;;;;5.80;3.90;;;5.80;99.90;;;;;;5070355;28;20229;-86
2021/04/04 08:02:46;;;;;;;8.23;4.43;;;5.80;99.90;;;;;;5070079;28;20236;-85
2021/04/04 08:05:15;;;;;;;7.17;4.97;;;5.90;99.90;;;;;;5071469;28;20219;-85
2021/04/04 08:07:50;;;;;;;10.20;5.57;;;6.00;99.90;;;;;;5073371;28;20240;-85
2021/04/04 08:10:24;;;;;;;9.90;5.17;;;6.00;99.90;;;;;;5073303;28;20241;-85
2021/04/04 08:13:10;;;;;;;8.97;5.53;;;6.00;99.90;;;;;;5073509;28;20195;-85
2021/04/04 08:15:44;;;;;;;9.87;5.00;;;6.00;99.90;;;;;;5074301;28;20287;-86
2021/04/04 08:18:11;;;;;;;11.77;5.53;;;6.10;99.90;;;;;;5074356;28;20191;-85
2021/04/04 08:20:43;;;;;;;10.83;5.83;;;6.20;99.90;;;;;;5074312;28;20231;-85
2021/04/04 08:23:18;;;;;;;9.30;5.37;;;6.30;99.90;;;;;;5074139;28;20195;-85
2021/04/04 08:25:50;;;;;;;11.60;5.33;;;6.40;99.90;;;;;;5074410;28;20188;-86
2021/04/04 08:28:24;;;;;;;10.77;5.23;;;6.60;99.90;;;;;;5073633;28;20662;-85
2021/04/04 08:30:54;;;;;;;7.67;4.37;;;6.80;99.90;;;;;;5074222;28;20631;-85
2021/04/04 08:33:23;;;;;;;7.17;4.53;;;6.90;99.90;;;;;;5074098;28;20191;-85
2021/04/04 08:35:53;;;;;;;7.30;3.73;;;7.00;99.90;;;;;;5073977;28;20228;-85
2021/04/04 08:38:23;;;;;;;7.13;4.13;;;7.00;99.90;;;;;;5073879;28;20200;-86
2021/04/04 08:40:50;;;;;;;11.37;4.53;;;7.20;99.90;;;;;;5073752;28;20219;-86
2021/04/04 08:43:18;;;;;;;9.80;4.20;;;7.20;99.90;;;;;;5073716;28;20613;-86
2021/04/04 08:45:51;;;;;;;8.67;4.00;;;7.20;99.90;;;;;;5073867;28;20580;-86
2021/04/04 08:48:20;;;;;;;8.47;4.00;;;7.30;99.90;;;;;;5073812;28;20195;-86
2021/04/04 08:50:49;;;;;;;11.40;4.10;;;7.30;99.90;;;;;;5073782;28;20269;-85
2021/04/04 08:53:24;;;;;;;7.10;3.87;;;7.30;99.90;;;;;;5073444;28;20211;-86
2021/04/04 08:55:51;;;;;;;8.93;4.13;;;7.30;99.90;;;;;;5073710;28;20197;-86
2021/04/04 08:58:21;;;;;;;7.73;4.13;;;7.30;99.90;;;;;;5073553;28;20218;-86
2021/04/04 09:00:51;;;;;;;11.20;4.37;;;7.40;99.90;;;;;;5073679;28;20243;-86
2021/04/04 09:03:20;;;;;;;8.43;4.20;;;7.50;99.90;;;;;;5073518;28;20231;-86
2021/04/04 09:05:47;;;;;;;8.37;4.40;;;7.60;99.90;;;;;;5073606;28;20243;-86
2021/04/04 09:08:16;;;;;;;8.43;4.33;;;7.70;99.90;;;;;;5073597;28;20207;-86
2021/04/04 09:10:44;;;;;;;9.27;4.60;;;7.80;99.90;;;;;;5073750;28;20210;-86
2021/04/04 09:13:12;;;;;;;10.90;4.50;;;7.80;99.90;;;;;;5073283;28;20329;-86
2021/04/04 09:15:47;;;;;;;10.53;4.70;;;7.90;99.90;;;;;;5072024;28;20314;-86
2021/04/04 09:18:15;;;;;;;9.40;4.17;;;8.10;99.90;;;;;;5073089;28;20213;-87
2021/04/04 09:20:43;;;;;;;10.63;4.70;;;8.10;99.90;;;;;;5073021;28;20227;-86
2021/04/04 09:23:10;;;;;;;8.37;4.17;;;8.20;99.90;;;;;;5072998;28;20576;-87
2021/04/04 09:25:39;;;;;;;6.73;4.20;;;8.40;99.90;;;;;;5073425;28;20269;-87
2021/04/04 09:28:07;;;;;;;10.00;4.60;;;8.40;99.90;;;;;;5073311;28;20234;-86
2021/04/04 09:30:39;;;;;;;8.30;4.73;;;8.50;99.90;;;;;;5073353;28;20208;-87
2021/04/04 09:33:09;;;;;;;7.63;4.10;;;8.40;99.90;;;;;;5073126;28;20188;-86
2021/04/04 09:35:38;;;;;;;9.70;4.80;;;8.40;99.90;;;;;;5073021;28;20224;-87
2021/04/04 09:38:07;;;;;;;8.67;4.37;;;8.50;99.90;;;;;;5073127;28;20305;-87
2021/04/04 09:40:34;;;;;;;13.27;4.80;;;8.60;99.90;;;;;;5072919;28;20227;-87
2021/04/04 09:43:08;;;;;;;9.17;5.27;;;8.80;99.90;;;;;;5073043;28;20216;-87
2021/04/04 09:45:34;;;;;;;8.00;4.30;;;9.00;99.90;;;;;;5073352;28;20208;-87
2021/04/04 09:48:17;;;;;;;7.73;4.87;;;9.10;99.90;;;;;;5073027;28;20199;-87
2021/04/04 09:50:45;;;;;;;10.33;4.63;;;9.20;99.90;;;;;;5072758;28;20191;-88
2021/04/04 09:53:11;;;;;;;10.70;4.50;;;9.50;99.90;;;;;;5072645;28;20561;-86
2021/04/04 09:55:45;;;;;;;9.63;4.63;;;9.50;99.90;;;;;;5072810;28;20286;-87
2021/04/04 09:58:14;;;;;;;10.20;4.53;;;9.60;99.90;;;;;;5072682;28;20259;-88
2021/04/04 10:00:43;;;;;;;11.10;4.77;;;9.70;99.90;;;;;;5072569;28;20256;-87
2021/04/04 10:03:10;;;;;;;7.73;4.33;;;9.70;99.90;;;;;;5072535;28;20230;-88
2021/04/04 10:05:40;;;;;;;14.10;4.10;;;9.70;99.90;;;;;;5072522;28;20200;-87
2021/04/04 10:08:08;;;;;;;10.87;4.40;;;9.60;99.90;;;;;;5072516;28;20215;-87
2021/04/04 10:10:34;;;;;;;10.60;4.60;;;9.30;99.90;;;;;;5072488;28;20249;-87
2021/04/04 10:13:03;;;;;;;6.87;3.37;;;9.10;99.90;;;;;;5072195;28;20207;-87
2021/04/04 10:15:38;;;;;;;7.37;3.93;;;9.10;99.90;;;;;;5071581;28;20269;-87
2021/04/04 10:18:05;;;;;;;7.70;4.50;;;9.30;99.90;;;;;;5072438;28;20202;-88
2021/04/04 10:20:33;;;;;;;8.67;4.13;;;9.40;99.90;;;;;;5072328;28;20254;-87
2021/04/04 10:23:01;;;;;;;10.47;4.00;;;9.40;99.90;;;;;;5072368;28;20203;-87
2021/04/04 10:25:27;;;;;;;7.60;3.50;;;9.40;99.90;;;;;;5071925;28;20243;-88
2021/04/04 10:27:58;;;;;;;9.00;3.50;;;9.60;99.90;;;;;;5071978;28;20222;-88
2021/04/04 10:30:28;;;;;;;8.83;4.17;;;9.70;99.90;;;;;;5071897;28;20650;-87
2021/04/04 10:32:54;;;;;;;11.57;4.63;;;9.70;99.90;;;;;;5071846;28;20215;-87
2021/04/04 10:35:32;;;;;;;6.93;3.37;;;9.60;99.90;;;;;;5071778;28;20590;-86
2021/04/04 10:38:04;;;;;;;8.10;3.40;;;9.70;99.90;;;;;;5071833;28;20272;-87
2021/04/04 10:40:48;;;;;;;7.10;3.70;;;9.80;99.90;;;;;;5071261;28;20236;-87
2021/04/04 10:43:15;;;;;;;7.60;3.83;;;10.00;99.90;;;;;;5071675;28;20203;-86
2021/04/04 10:45:59;;;;;;;8.20;3.47;;;10.20;99.90;;;;;;5072004;28;20200;-87
2021/04/04 10:48:27;;;;;;;8.90;3.53;;;9.90;99.90;;;;;;5071934;28;20188;-88
2021/04/04 10:50:53;;;;;;;7.17;3.30;;;9.60;99.90;;;;;;5071703;28;20203;-87
2021/04/04 10:53:20;;;;;;;11.30;3.50;;;9.50;99.90;;;;;;5071611;28;20226;-87
2021/04/04 10:55:47;;;;;;;6.70;3.67;;;9.70;99.90;;;;;;5071761;28;20206;-88
2021/04/04 10:58:14;;;;;;;7.43;3.10;;;9.90;99.90;;;;;;5071810;28;20210;-88
2021/04/04 11:00:43;;;;;;;5.73;3.33;;;10.00;99.90;;;;;;5071525;28;20235;-87
2021/04/04 11:03:09;;;;;;;10.17;3.87;;;10.20;99.90;;;;;;5071771;28;20210;-88
2021/04/04 11:05:36;;;;;;;8.50;3.23;;;10.40;99.90;;;;;;5071700;28;20204;-88
2021/04/04 11:08:03;;;;;;;12.13;6.00;;;10.50;99.90;;;;;;5071879;28;20246;-88
2021/04/04 11:10:30;;;;;;;7.93;3.60;;;10.60;99.90;;;;;;5071538;28;20234;-88
2021/04/04 11:12:57;;;;;;;8.43;3.47;;;10.50;99.70;;;;;;5071666;28;20235;-88
2021/04/04 11:15:27;;;;;;;8.93;3.37;;;10.50;99.80;;;;;;5071400;28;20706;-88
2021/04/04 11:17:53;;;;;;;6.63;2.87;;;10.60;99.60;;;;;;5071416;28;20210;-87
2021/04/04 11:20:21;;;;;;;4.83;2.63;;;10.50;98.80;;;;;;5071173;28;20238;-87
2021/04/04 11:22:47;;;;;;;8.07;3.53;;;10.10;99.30;;;;;;5071499;28;20296;-88
2021/04/04 11:25:16;;;;;;;7.60;3.27;;;10.10;99.60;;;;;;5071433;28;20230;-87
2021/04/04 11:27:45;;;;;;;7.83;3.30;;;9.90;99.90;;;;;;5071390;28;20203;-88
2021/04/04 11:30:14;;;;;;;10.37;3.43;;;9.70;99.90;;;;;;5071276;28;20212;-87
2021/04/04 11:32:42;;;;;;;7.50;3.60;;;9.70;99.90;;;;;;5071318;28;20199;-87
2021/04/04 11:35:09;;;;;;;8.03;3.23;;;9.60;99.90;;;;;;5071212;28;20227;-87
2021/04/04 11:37:39;;;;;;;7.53;3.60;;;9.70;99.90;;;;;;5071154;28;20203;-87
2021/04/04 11:40:13;;;;;;;10.23;3.47;;;10.00;99.70;;;;;;5070659;28;20229;-89
2021/04/04 11:42:39;;;;;;;6.03;3.97;;;10.30;99.10;;;;;;5071136;28;20260;-88
2021/04/04 11:45:08;;;;;;;6.47;3.77;;;10.60;98.80;;;;;;5071314;28;20580;-88
2021/04/04 11:47:34;;;;;;;5.57;3.27;;;10.90;98.60;;;;;;5070822;28;20250;-87
2021/04/04 11:50:01;;;;;;;10.13;3.43;;;11.00;98.10;;;;;;5071101;28;20216;-89
2021/04/04 11:52:48;;;;;;;6.33;3.33;;;10.90;97.30;;;;;;5071172;28;20204;-88
2021/04/04 11:55:16;;;;;;;10.70;3.37;;;11.00;98.00;;;;;;5071066;28;20199;-88
2021/04/04 11:57:45;;;;;;;10.63;3.63;;;11.10;97.80;;;;;;5070772;28;20223;-88
2021/04/04 12:00:21;;;;;;;6.37;3.27;;;11.00;97.90;;;;;;5070877;28;20224;-89
2021/04/04 12:02:59;;;;;;;6.53;3.87;;;11.00;98.30;;;;;;5071041;28;20191;-88
2021/04/04 12:05:31;;;;;;;8.30;3.40;;;10.90;98.10;;;;;;5070744;28;20195;-88
2021/04/04 12:07:58;;;;;;;5.97;3.13;;;10.70;98.40;;;;;;5070647;28;20204;-89
2021/04/04 12:10:26;;;;;;;8.50;3.07;;;10.80;98.20;;;;;;5070419;28;20264;-89
2021/04/04 12:12:53;;;;;;;5.43;2.83;;;10.80;98.20;;;;;;5070813;28;20207;-87
2021/04/04 12:15:22;;;;;;;6.60;3.20;;;10.90;97.50;;;;;;5070092;28;20235;-89
2021/04/04 12:17:50;;;;;;;9.00;3.23;;;11.00;97.70;;;;;;5070659;28;20215;-89
2021/04/04 12:20:20;;;;;;;10.17;5.77;;;11.20;97.70;;;;;;5070350;28;20251;-89
2021/04/04 12:22:46;;;;;;;6.90;3.30;;;11.40;97.30;;;;;;5070643;28;20223;-89
2021/04/04 12:25:14;;;;;;;7.73;3.27;;;11.40;97.40;;;;;;5070651;28;20199;-89
2021/04/04 12:27:42;;;;;;;5.23;2.90;;;11.40;97.30;;;;;;5070184;28;20235;-89
2021/04/04 12:30:22;;;;;;;8.80;3.70;;;11.50;97.20;;;;;;5070532;28;20922;-89
2021/04/04 12:32:48;;;;;;;9.27;3.87;;;11.70;97.30;;;;;;5070528;28;20196;-89
2021/04/04 12:35:23;;;;;;;7.47;3.30;;;11.70;97.00;;;;;;5070476;28;20281;-89
2021/04/04 12:37:49;;;;;;;4.93;3.17;;;11.70;97.10;;;;;;5070627;28;20634;-89
2021/04/04 12:40:16;;;;;;;9.67;3.87;;;11.60;97.30;;;;;;5070244;28;20243;-90
2021/04/04 12:42:42;;;;;;;6.67;3.23;;;11.60;97.10;;;;;;5070149;28;20211;-88
2021/04/04 12:45:11;;;;;;;10.33;3.77;;;11.60;96.90;;;;;;5070436;28;20612;-89
2021/04/04 12:47:40;;;;;;;8.63;2.93;;;11.40;96.90;;;;;;5070180;28;20204;-88
2021/04/04 12:50:09;;;;;;;7.73;3.70;;;11.20;96.80;;;;;;5070179;28;20253;-89
2021/04/04 12:52:40;;;;;;;7.60;3.60;;;10.80;97.20;;;;;;5072609;28;20243;-88
2021/04/04 12:55:19;;;;;;;6.37;3.40;;;10.80;97.50;;;;;;5073871;28;20192;-89
2021/04/04 12:57:46;;;;;;;9.77;3.47;;;10.90;97.30;;;;;;5073899;28;20207;-89
2021/04/04 13:00:19;;;;;;;10.30;3.53;;;10.90;97.30;;;;;;5073841;28;20227;-89
2021/04/04 13:02:53;;;;;;;9.33;3.03;;;10.90;97.50;;;;;;5073758;28;20206;-89
2021/04/04 13:05:19;;;;;;;9.37;3.30;;;11.10;97.60;;;;;;5074066;28;20303;-90
2021/04/04 13:07:45;;;;;;;10.07;3.17;;;11.20;97.40;;;;;;5073742;28;20615;-89
2021/04/04 13:10:12;;;;;;;8.03;3.27;;;11.30;97.10;;;;;;5073900;28;20235;-89
2021/04/04 13:12:38;;;;;;;6.70;3.07;;;11.20;96.90;;;;;;5073544;28;20207;-89